createdAt,value
2023-10-21T00:02:24.447Z,16.40
2023-10-21T00:04:51.346Z,16.30
2023-10-21T00:10:17.711Z,16.30
2023-10-21T00:18:38.504Z,16.30
2023-10-21T00:21:06.143Z,16.30
2023-10-21T00:23:36.730Z,16.30
2023-10-21T00:28:53.456Z,16.30
2023-10-21T00:31:22.224Z,16.30
2023-10-21T00:33:48.981Z,16.20
2023-10-21T00:36:15.784Z,16.20
2023-10-21T00:38:43.071Z,16.20
2023-10-21T00:41:09.928Z,16.10
2023-10-21T00:43:38.212Z,16.20
2023-10-21T00:46:37.481Z,16.20
2023-10-21T00:49:06.086Z,16.10
2023-10-21T00:51:33.730Z,16.10
2023-10-21T00:54:02.430Z,16.10
2023-10-21T00:56:29.950Z,16.10
2023-10-21T00:58:56.774Z,16.10
2023-10-21T01:01:23.416Z,16.10
2023-10-21T01:03:50.407Z,16.10
2023-10-21T01:06:17.232Z,16.10
2023-10-21T01:08:44.197Z,16.00
2023-10-21T01:11:11.518Z,16.10
2023-10-21T01:13:38.160Z,16.10
2023-10-21T01:16:04.889Z,16.10
2023-10-21T01:18:34.868Z,16.10
2023-10-21T01:21:04.950Z,16.10
2023-10-21T01:23:31.860Z,16.10
2023-10-21T01:25:58.528Z,16.10
2023-10-21T01:28:25.133Z,16.10
2023-10-21T01:30:51.745Z,16.10
2023-10-21T01:33:18.551Z,16.10
2023-10-21T01:35:45.375Z,16.00
2023-10-21T01:38:12.098Z,16.00
2023-10-21T01:40:38.858Z,16.00
2023-10-21T01:43:05.547Z,16.00
2023-10-21T01:45:32.740Z,15.90
2023-10-21T01:47:59.505Z,16.00
2023-10-21T01:50:26.281Z,15.90
2023-10-21T01:52:52.919Z,15.90
2023-10-21T01:55:19.619Z,15.90
2023-10-21T01:57:46.804Z,15.80
2023-10-21T02:00:19.887Z,15.80
2023-10-21T02:02:54.107Z,15.80
2023-10-21T02:05:21.928Z,15.80
2023-10-21T02:07:48.730Z,15.80
2023-10-21T02:10:15.398Z,15.80
2023-10-21T02:12:42.071Z,15.80
2023-10-21T02:15:13.204Z,15.80
2023-10-21T02:17:40.883Z,15.80
2023-10-21T02:20:08.218Z,15.80
2023-10-21T02:22:34.885Z,15.80
2023-10-21T02:25:07.780Z,15.80
2023-10-21T02:27:41.635Z,15.80
2023-10-21T02:30:10.659Z,15.80
2023-10-21T02:32:38.728Z,15.80
2023-10-21T02:35:06.254Z,15.90
2023-10-21T02:37:32.971Z,15.90
2023-10-21T02:39:59.643Z,15.90
2023-10-21T02:42:26.264Z,15.90
2023-10-21T02:44:53.244Z,16.00
2023-10-21T02:47:20.215Z,15.90
2023-10-21T02:49:47.461Z,16.00
2023-10-21T02:52:14.603Z,16.00
2023-10-21T02:54:41.269Z,16.00
2023-10-21T02:57:07.987Z,16.00
2023-10-21T02:59:37.436Z,16.00
2023-10-21T03:02:04.242Z,16.00
2023-10-21T03:04:30.860Z,16.00
2023-10-21T03:06:57.511Z,16.00
2023-10-21T03:09:24.189Z,16.00
2023-10-21T03:11:50.919Z,16.00
2023-10-21T03:14:17.613Z,16.00
2023-10-21T03:16:44.324Z,16.00
2023-10-21T03:19:11.275Z,16.10
2023-10-21T03:21:37.940Z,16.10
2023-10-21T03:24:04.906Z,16.10
2023-10-21T03:26:31.541Z,16.10
2023-10-21T03:28:58.147Z,16.10
2023-10-21T03:31:24.862Z,16.00
2023-10-21T03:33:51.591Z,16.00
2023-10-21T03:36:18.285Z,16.00
2023-10-21T03:38:44.978Z,16.00
2023-10-21T03:41:12.604Z,16.00
2023-10-21T03:43:39.310Z,16.00
2023-10-21T03:46:09.678Z,16.00
2023-10-21T03:48:36.824Z,16.00
2023-10-21T03:51:08.306Z,16.00
2023-10-21T03:53:35.112Z,16.00
2023-10-21T03:56:02.549Z,16.00
2023-10-21T03:58:29.376Z,15.90
2023-10-21T04:00:58.143Z,15.90
2023-10-21T04:03:28.208Z,15.90
2023-10-21T04:05:55.703Z,15.90
2023-10-21T04:08:25.197Z,15.90
2023-10-21T04:10:53.822Z,15.80
2023-10-21T04:13:20.539Z,15.80
2023-10-21T04:15:47.211Z,15.80
2023-10-21T04:18:14.246Z,15.80
2023-10-21T04:20:41.024Z,15.80
2023-10-21T04:23:07.724Z,15.70
2023-10-21T04:25:34.470Z,15.70
2023-10-21T04:28:01.501Z,15.70
2023-10-21T04:30:28.194Z,15.70
2023-10-21T04:32:55.244Z,15.70
2023-10-21T04:35:22.087Z,15.60
2023-10-21T04:37:49.209Z,15.60
2023-10-21T04:40:16.590Z,15.60
2023-10-21T04:42:43.252Z,15.70
2023-10-21T04:45:10.612Z,15.70
2023-10-21T04:47:37.606Z,15.70
2023-10-21T04:50:05.330Z,15.70
2023-10-21T04:52:32.185Z,15.70
2023-10-21T04:54:59.249Z,15.70
2023-10-21T04:57:26.971Z,15.70
2023-10-21T04:59:53.827Z,15.80
2023-10-21T05:02:21.484Z,15.80
2023-10-21T05:04:49.399Z,15.80
2023-10-21T05:07:16.044Z,15.70
2023-10-21T05:09:42.685Z,15.80
2023-10-21T05:12:11.542Z,15.80
2023-10-21T05:14:38.588Z,15.80
2023-10-21T05:17:06.751Z,15.70
2023-10-21T05:19:33.862Z,15.80
2023-10-21T05:22:01.206Z,15.80
2023-10-21T05:24:28.499Z,15.80
2023-10-21T05:26:55.415Z,15.80
2023-10-21T05:29:22.170Z,15.80
2023-10-21T05:31:50.340Z,15.80
2023-10-21T05:34:19.705Z,15.90
2023-10-21T05:36:46.851Z,15.90
2023-10-21T05:39:13.925Z,15.90
2023-10-21T05:41:43.466Z,15.90
2023-10-21T05:44:10.485Z,15.90
2023-10-21T05:46:37.298Z,16.00
2023-10-21T05:49:04.907Z,16.00
2023-10-21T05:51:32.094Z,16.00
2023-10-21T05:53:58.996Z,16.00
2023-10-21T05:56:25.987Z,16.00
2023-10-21T05:58:52.669Z,16.00
2023-10-21T06:01:19.390Z,16.00
2023-10-21T06:03:46.368Z,16.00
2023-10-21T06:06:13.183Z,16.00
2023-10-21T06:08:40.129Z,16.00
2023-10-21T06:11:06.795Z,16.10
2023-10-21T06:13:33.606Z,16.10
2023-10-21T06:16:00.356Z,16.10
2023-10-21T06:18:27.140Z,16.10
2023-10-21T06:20:54.731Z,16.10
2023-10-21T06:23:23.001Z,16.20
2023-10-21T06:25:49.688Z,16.20
2023-10-21T06:28:16.669Z,16.20
2023-10-21T06:30:43.590Z,16.30
2023-10-21T06:33:10.661Z,16.30
2023-10-21T06:35:38.651Z,16.30
2023-10-21T06:38:06.748Z,16.40
2023-10-21T06:40:47.048Z,16.40
2023-10-21T06:43:18.916Z,16.40
2023-10-21T06:45:46.393Z,16.40
2023-10-21T06:48:13.305Z,16.40
2023-10-21T06:50:40.188Z,16.40
2023-10-21T06:53:07.125Z,16.40
2023-10-21T06:55:43.661Z,16.40
2023-10-21T06:58:10.986Z,16.30
2023-10-21T07:00:38.106Z,16.30
2023-10-21T07:03:05.735Z,16.30
2023-10-21T07:05:32.670Z,16.30
2023-10-21T07:07:59.730Z,16.30
2023-10-21T07:10:30.249Z,16.30
2023-10-21T07:12:57.929Z,16.30
2023-10-21T07:15:26.170Z,16.30
2023-10-21T07:17:53.947Z,16.30
2023-10-21T07:20:20.836Z,16.30
2023-10-21T07:22:47.579Z,16.30
2023-10-21T07:25:14.335Z,16.30
2023-10-21T07:27:40.958Z,16.30
2023-10-21T07:30:08.421Z,16.40
2023-10-21T07:32:35.249Z,16.40
2023-10-21T07:35:02.010Z,16.50
2023-10-21T07:37:30.261Z,16.50
2023-10-21T07:39:59.394Z,16.50
2023-10-21T07:42:26.888Z,16.60
2023-10-21T07:44:54.219Z,16.60
2023-10-21T07:47:23.357Z,16.60
2023-10-21T07:49:55.496Z,16.60
2023-10-21T07:52:22.953Z,16.70
2023-10-21T07:54:49.643Z,16.70
2023-10-21T07:57:16.981Z,16.80
2023-10-21T07:59:44.215Z,16.90
2023-10-21T08:02:11.240Z,17.00
2023-10-21T08:04:38.264Z,17.10
2023-10-21T08:07:05.206Z,17.20
2023-10-21T08:09:31.939Z,17.30
2023-10-21T08:11:58.952Z,17.50
2023-10-21T08:14:28.191Z,17.60
2023-10-21T08:16:54.848Z,17.80
2023-10-21T08:19:21.894Z,17.90
2023-10-21T08:21:48.647Z,18.00
2023-10-21T08:24:15.305Z,18.20
2023-10-21T08:26:42.032Z,18.30
2023-10-21T08:29:11.231Z,18.40
2023-10-21T08:31:37.961Z,18.40
2023-10-21T08:34:04.640Z,18.50
2023-10-21T08:36:31.360Z,18.50
2023-10-21T08:38:58.084Z,18.50
2023-10-21T08:41:24.737Z,18.50
2023-10-21T08:43:51.433Z,18.60
2023-10-21T08:46:18.825Z,18.60
2023-10-21T08:48:46.752Z,18.60
2023-10-21T08:51:16.685Z,18.70
2023-10-21T08:53:43.388Z,18.70
2023-10-21T08:56:12.306Z,18.80
2023-10-21T08:58:38.965Z,18.80
2023-10-21T09:01:06.917Z,18.90
2023-10-21T09:03:33.997Z,18.80
2023-10-21T09:06:13.193Z,18.90
2023-10-21T09:08:44.030Z,18.90
2023-10-21T09:11:14.270Z,18.90
2023-10-21T09:13:41.589Z,18.90
2023-10-21T09:16:25.376Z,18.90
2023-10-21T09:19:05.914Z,19.00
2023-10-21T09:21:40.442Z,19.20
2023-10-21T09:24:11.890Z,19.50
2023-10-21T09:26:42.409Z,20.00
2023-10-21T09:29:13.304Z,20.50
2023-10-21T09:31:53.359Z,21.00
2023-10-21T09:34:30.876Z,21.60
2023-10-21T09:37:01.095Z,22.10
2023-10-21T09:39:30.016Z,22.40
2023-10-21T09:41:56.802Z,22.60
2023-10-21T09:44:24.046Z,22.70
2023-10-21T09:46:51.238Z,22.70
2023-10-21T09:49:18.112Z,22.90
2023-10-21T09:51:59.715Z,23.10
2023-10-21T09:54:32.381Z,23.20
2023-10-21T09:56:59.838Z,23.30
2023-10-21T09:59:27.558Z,23.30
2023-10-21T10:01:54.271Z,23.20
2023-10-21T10:04:24.214Z,23.10
2023-10-21T10:07:05.271Z,23.20
2023-10-21T10:09:32.401Z,23.50
2023-10-21T10:12:02.262Z,23.80
2023-10-21T10:14:29.646Z,24.10
2023-10-21T10:16:56.309Z,24.40
2023-10-21T10:19:41.739Z,24.70
2023-10-21T10:22:19.331Z,25.00
2023-10-21T10:24:56.418Z,25.10
2023-10-21T10:27:36.090Z,25.30
2023-10-21T10:30:03.085Z,25.50
2023-10-21T10:32:32.509Z,25.70
2023-10-21T10:34:59.343Z,25.80
2023-10-21T10:37:36.012Z,26.00
2023-10-21T10:40:19.402Z,26.10
2023-10-21T10:42:46.349Z,26.10
2023-10-21T10:45:13.771Z,26.10
2023-10-21T10:47:40.861Z,26.10
2023-10-21T10:50:20.389Z,26.00
2023-10-21T10:52:47.447Z,25.90
2023-10-21T10:55:16.241Z,25.70
2023-10-21T10:57:45.915Z,25.70
2023-10-21T11:00:21.406Z,26.00
2023-10-21T11:02:50.495Z,26.40
2023-10-21T11:05:21.421Z,26.80
2023-10-21T11:07:51.627Z,27.30
2023-10-21T11:10:22.097Z,27.70
2023-10-21T11:12:49.606Z,27.90
2023-10-21T11:15:17.636Z,28.00
2023-10-21T11:17:52.498Z,28.00
2023-10-21T11:20:20.169Z,28.10
2023-10-21T11:22:47.008Z,28.30
2023-10-21T11:25:13.657Z,28.70
2023-10-21T11:27:40.976Z,29.00
2023-10-21T11:30:08.941Z,29.40
2023-10-21T11:32:37.312Z,29.80
2023-10-21T11:35:10.327Z,30.20
2023-10-21T11:37:38.401Z,30.70
2023-10-21T11:40:05.721Z,30.80
2023-10-21T11:42:33.809Z,31.10
2023-10-21T11:45:04.615Z,31.20
2023-10-21T11:47:31.819Z,31.30
2023-10-21T11:50:12.955Z,31.20
2023-10-21T11:52:43.894Z,30.90
2023-10-21T11:55:10.546Z,30.80
2023-10-21T11:57:56.310Z,31.00
2023-10-21T12:00:55.053Z,31.60
2023-10-21T12:03:40.698Z,32.50
2023-10-21T12:06:16.549Z,33.50
2023-10-21T12:09:11.996Z,34.00
2023-10-21T12:12:04.358Z,34.20
2023-10-21T12:14:49.819Z,34.50
2023-10-21T12:17:25.628Z,34.70
2023-10-21T12:20:15.194Z,35.10
2023-10-21T12:23:13.280Z,35.10
2023-10-21T12:26:05.942Z,35.10
2023-10-21T12:28:51.315Z,34.90
2023-10-21T12:31:27.146Z,34.50
2023-10-21T12:33:53.786Z,34.10
2023-10-21T12:36:37.862Z,33.60
2023-10-21T12:39:16.559Z,33.00
2023-10-21T12:41:45.113Z,32.40
2023-10-21T12:44:18.091Z,31.70
2023-10-21T12:46:46.109Z,31.10
2023-10-21T12:49:26.125Z,30.70
2023-10-21T12:51:56.684Z,30.50
2023-10-21T12:54:23.583Z,30.60
2023-10-21T12:56:51.320Z,31.00
2023-10-21T12:59:18.185Z,31.60
2023-10-21T13:01:44.844Z,32.30
2023-10-21T13:04:11.780Z,33.10
2023-10-21T13:06:39.438Z,33.90
2023-10-21T13:09:21.778Z,34.40
2023-10-21T13:11:50.722Z,34.60
2023-10-21T13:14:21.614Z,34.70
2023-10-21T13:16:49.222Z,34.80
2023-10-21T13:19:16.022Z,34.60
2023-10-21T13:21:42.927Z,34.30
2023-10-21T13:24:10.071Z,33.90
2023-10-21T13:26:36.804Z,33.30
2023-10-21T13:29:05.691Z,32.70
2023-10-21T13:31:32.644Z,32.10
2023-10-21T13:33:59.328Z,31.50
2023-10-21T13:36:26.035Z,30.90
2023-10-21T13:38:52.692Z,30.30
2023-10-21T13:41:20.500Z,29.80
2023-10-21T13:43:47.317Z,29.30
2023-10-21T13:46:14.185Z,28.80
2023-10-21T13:48:40.945Z,28.40
2023-10-21T13:51:10.435Z,28.10
2023-10-21T13:53:37.084Z,27.90
2023-10-21T13:56:07.354Z,27.60
2023-10-21T13:58:34.166Z,27.40
2023-10-21T14:01:00.934Z,27.20
2023-10-21T14:03:27.779Z,27.00
2023-10-21T14:05:57.079Z,26.80
2023-10-21T14:08:27.481Z,26.60
2023-10-21T14:10:55.756Z,26.50
2023-10-21T14:13:25.048Z,26.40
2023-10-21T14:15:55.144Z,26.20
2023-10-21T14:18:23.661Z,26.00
2023-10-21T14:20:50.941Z,25.90
2023-10-21T14:23:19.654Z,25.70
2023-10-21T14:25:47.916Z,25.60
2023-10-21T14:28:14.870Z,25.50
2023-10-21T14:30:47.490Z,25.40
2023-10-21T14:33:17.868Z,25.30
2023-10-21T14:35:45.181Z,25.10
2023-10-21T14:38:12.431Z,25.10
2023-10-21T14:40:39.612Z,25.00
2023-10-21T14:43:06.724Z,24.90
2023-10-21T14:45:33.501Z,24.80
2023-10-21T14:48:00.334Z,24.60
2023-10-21T14:50:28.621Z,24.50
2023-10-21T14:52:55.843Z,24.40
2023-10-21T14:55:28.020Z,24.30
2023-10-21T14:58:02.908Z,24.20
2023-10-21T15:00:29.565Z,24.20
2023-10-21T15:02:59.009Z,24.10
2023-10-21T15:05:25.670Z,24.00
2023-10-21T15:07:52.338Z,23.90
2023-10-21T15:10:19.051Z,23.80
2023-10-21T15:12:46.616Z,23.80
2023-10-21T15:15:13.817Z,23.70
2023-10-21T15:17:41.062Z,23.60
2023-10-21T15:20:08.880Z,23.50
2023-10-21T15:22:36.122Z,23.40
2023-10-21T15:25:04.845Z,23.40
2023-10-21T15:27:32.494Z,23.30
2023-10-21T15:29:59.150Z,23.20
2023-10-21T15:32:25.840Z,23.20
2023-10-21T15:34:52.480Z,23.10
2023-10-21T15:37:21.333Z,23.10
2023-10-21T15:39:48.395Z,23.00
2023-10-21T15:42:15.186Z,23.00
2023-10-21T15:44:41.831Z,22.90
2023-10-21T15:47:08.651Z,22.90
2023-10-21T15:49:38.366Z,22.80
2023-10-21T15:52:05.391Z,22.80
2023-10-21T15:54:32.057Z,22.70
2023-10-21T15:56:58.705Z,22.70
2023-10-21T15:59:25.321Z,22.60
2023-10-21T16:01:52.017Z,22.50
2023-10-21T16:04:18.793Z,22.50
2023-10-21T16:06:45.609Z,22.40
2023-10-21T16:09:12.457Z,22.40
2023-10-21T16:11:39.117Z,22.30
2023-10-21T16:14:05.778Z,22.30
2023-10-21T16:16:32.556Z,22.20
2023-10-21T16:18:59.254Z,22.20
2023-10-21T16:21:25.944Z,22.10
2023-10-21T16:23:52.589Z,22.10
2023-10-21T16:26:20.952Z,22.10
2023-10-21T16:28:49.253Z,22.00
2023-10-21T16:31:16.156Z,22.00
2023-10-21T16:33:42.973Z,22.00
2023-10-21T16:36:09.776Z,21.90
2023-10-21T16:38:36.417Z,21.90
2023-10-21T16:41:03.063Z,21.80
2023-10-21T16:43:29.673Z,21.70
2023-10-21T16:45:56.407Z,21.70
2023-10-21T16:48:23.194Z,21.60
2023-10-21T16:50:49.832Z,21.50
2023-10-21T16:53:16.445Z,21.40
2023-10-21T16:55:43.315Z,21.30
2023-10-21T16:58:10.506Z,21.30
2023-10-21T17:00:37.919Z,21.30
2023-10-21T17:03:07.190Z,21.20
2023-10-21T17:05:35.644Z,21.20
2023-10-21T17:08:02.886Z,21.20
2023-10-21T17:10:29.518Z,21.10
2023-10-21T17:12:56.150Z,21.10
2023-10-21T17:15:22.901Z,21.10
2023-10-21T17:17:49.645Z,21.00
2023-10-21T17:20:16.701Z,21.00
2023-10-21T17:22:43.360Z,21.00
2023-10-21T17:25:10.061Z,21.00
2023-10-21T17:27:36.747Z,20.90
2023-10-21T17:30:04.139Z,20.90
2023-10-21T17:32:30.814Z,20.90
2023-10-21T17:34:57.913Z,20.90
2023-10-21T17:37:24.590Z,20.80
2023-10-21T17:39:51.307Z,20.90
2023-10-21T17:42:18.326Z,20.80
2023-10-21T17:44:46.367Z,20.80
2023-10-21T17:47:13.056Z,20.80
2023-10-21T17:49:40.446Z,20.80
2023-10-21T17:52:07.123Z,20.80
2023-10-21T17:54:33.837Z,20.80
2023-10-21T17:57:00.569Z,20.80
2023-10-21T17:59:27.169Z,20.80
2023-10-21T18:01:53.852Z,20.80
2023-10-21T18:04:20.525Z,20.70
2023-10-21T18:06:47.295Z,20.70
2023-10-21T18:09:14.620Z,20.70
2023-10-21T18:11:41.316Z,20.70
2023-10-21T18:14:08.554Z,20.70
2023-10-21T18:16:37.495Z,20.60
2023-10-21T18:19:04.764Z,20.60
2023-10-21T18:21:31.452Z,20.60
2023-10-21T18:23:58.109Z,20.60
2023-10-21T18:26:24.989Z,20.60
2023-10-21T18:28:52.346Z,20.50
2023-10-21T18:31:22.324Z,20.50
2023-10-21T18:33:49.300Z,20.50
2023-10-21T18:36:16.064Z,20.50
2023-10-21T18:38:42.749Z,20.40
2023-10-21T18:41:09.380Z,20.40
2023-10-21T18:43:36.202Z,20.40
2023-10-21T18:46:02.813Z,20.40
2023-10-21T18:48:29.520Z,20.30
2023-10-21T18:51:05.842Z,20.30
2023-10-21T18:53:32.532Z,20.20
2023-10-21T18:55:59.204Z,20.20
2023-10-21T18:58:25.845Z,20.10
2023-10-21T19:00:57.055Z,20.00
2023-10-21T19:03:23.837Z,20.00
2023-10-21T19:05:53.576Z,20.00
2023-10-21T19:08:20.711Z,20.00
2023-10-21T19:10:47.470Z,19.90
2023-10-21T19:13:17.030Z,19.90
2023-10-21T19:15:43.728Z,19.80
2023-10-21T19:18:10.901Z,19.80
2023-10-21T19:20:38.021Z,19.80
2023-10-21T19:23:04.899Z,19.70
2023-10-21T19:25:31.553Z,19.70
2023-10-21T19:27:58.208Z,19.70
2023-10-21T19:30:26.833Z,19.70
2023-10-21T19:32:53.626Z,19.60
2023-10-21T19:35:20.288Z,19.60
2023-10-21T19:37:49.671Z,19.60
2023-10-21T19:40:17.563Z,19.60
2023-10-21T19:42:44.510Z,19.70
2023-10-21T19:45:12.353Z,19.60
2023-10-21T19:47:39.407Z,19.70
2023-10-21T19:50:07.289Z,19.70
2023-10-21T19:52:33.979Z,19.70
2023-10-21T19:55:02.724Z,19.70
2023-10-21T19:57:30.243Z,19.60
2023-10-21T19:59:56.947Z,19.60
2023-10-21T20:02:23.611Z,19.60
2023-10-21T20:04:50.378Z,19.60
2023-10-21T20:07:17.184Z,19.60
2023-10-21T20:09:44.507Z,19.60
2023-10-21T20:12:11.327Z,19.60
2023-10-21T20:14:38.396Z,19.60
2023-10-21T20:17:05.031Z,19.50
2023-10-21T20:19:32.504Z,19.50
2023-10-21T20:21:59.149Z,19.50
2023-10-21T20:24:25.805Z,19.50
2023-10-21T20:26:52.467Z,19.50
2023-10-21T20:29:19.845Z,19.50
2023-10-21T20:31:48.028Z,19.50
2023-10-21T20:34:16.072Z,19.50
2023-10-21T20:36:42.913Z,19.50
2023-10-21T20:39:10.022Z,19.40
2023-10-21T20:41:40.842Z,19.40
2023-10-21T20:44:07.897Z,19.40
2023-10-21T20:46:35.180Z,19.40
2023-10-21T20:49:01.985Z,19.30
2023-10-21T20:51:28.654Z,19.30
2023-10-21T20:53:55.601Z,19.30
2023-10-21T20:56:25.806Z,19.20
2023-10-21T20:58:54.675Z,19.20
2023-10-21T21:01:31.006Z,19.20
2023-10-21T21:04:05.654Z,19.10
2023-10-21T21:06:32.654Z,19.10
2023-10-21T21:08:59.392Z,19.10
2023-10-21T21:11:26.072Z,19.10
2023-10-21T21:13:52.940Z,19.10
2023-10-21T21:16:19.896Z,19.00
2023-10-21T21:18:46.687Z,19.00
2023-10-21T21:21:13.613Z,19.00
2023-10-21T21:23:40.298Z,19.00
2023-10-21T21:26:07.054Z,19.00
2023-10-21T21:28:33.961Z,18.90
2023-10-21T21:31:00.721Z,19.00
2023-10-21T21:33:29.669Z,18.90
2023-10-21T21:35:59.922Z,18.90
2023-10-21T21:38:27.266Z,18.90
2023-10-21T21:40:54.261Z,18.90
2023-10-21T21:43:20.977Z,18.80
2023-10-21T21:45:48.662Z,18.80
2023-10-21T21:48:15.613Z,18.80
2023-10-21T21:50:42.361Z,18.80
2023-10-21T21:53:11.971Z,18.70
2023-10-21T21:55:39.061Z,18.70
2023-10-21T21:58:05.846Z,18.70
2023-10-21T22:00:41.866Z,18.70
2023-10-21T22:03:08.920Z,18.70
2023-10-21T22:05:36.930Z,18.70
2023-10-21T22:08:05.046Z,18.60
2023-10-21T22:10:34.076Z,18.60
2023-10-21T22:13:01.302Z,18.60
2023-10-21T22:15:28.606Z,18.60
2023-10-21T22:17:55.845Z,18.60
2023-10-21T22:20:25.754Z,18.60
2023-10-21T22:22:55.296Z,18.60
2023-10-21T22:25:28.837Z,18.50
2023-10-21T22:27:56.285Z,18.50
2023-10-21T22:30:23.439Z,18.50
2023-10-21T22:32:50.165Z,18.50
2023-10-21T22:35:16.850Z,18.40
2023-10-21T22:37:43.515Z,18.40
2023-10-21T22:40:15.698Z,18.40
2023-10-21T22:42:42.361Z,18.40
2023-10-21T22:45:09.511Z,18.40
2023-10-21T22:47:36.307Z,18.40
2023-10-21T22:50:03.034Z,18.40
2023-10-21T22:52:29.710Z,18.30
2023-10-21T22:54:57.333Z,18.30
2023-10-21T22:57:24.192Z,18.30
2023-10-21T22:59:56.000Z,18.30
2023-10-21T23:02:23.620Z,18.30
2023-10-21T23:04:55.623Z,18.30
2023-10-21T23:07:23.915Z,18.30
2023-10-21T23:09:51.201Z,18.20
2023-10-21T23:12:18.343Z,18.30
2023-10-21T23:14:45.867Z,18.20
2023-10-21T23:17:14.154Z,18.20
2023-10-21T23:19:42.633Z,18.20
2023-10-21T23:22:12.372Z,18.10
2023-10-21T23:24:40.608Z,18.10
2023-10-21T23:27:07.499Z,18.20
2023-10-21T23:29:34.980Z,18.10
2023-10-21T23:32:01.805Z,18.10
2023-10-21T23:34:29.950Z,18.00
2023-10-21T23:36:57.557Z,18.00
2023-10-21T23:39:24.233Z,18.00
2023-10-21T23:41:51.460Z,18.00
2023-10-21T23:44:18.751Z,18.00
2023-10-21T23:46:48.227Z,18.00
2023-10-21T23:49:14.851Z,18.00
2023-10-21T23:51:41.580Z,18.00
2023-10-21T23:54:09.010Z,18.00
2023-10-21T23:56:36.033Z,17.90
2023-10-21T23:59:02.718Z,17.90
